createdAt,value
2018-09-27T00:05:40.763Z,8.10
2018-09-27T00:20:35.002Z,8.00
2018-09-27T00:23:04.289Z,7.90
2018-09-27T00:25:33.597Z,7.90
2018-09-27T00:30:32.604Z,7.80
2018-09-27T00:55:28.566Z,7.70
2018-09-27T00:57:57.865Z,7.60
2018-09-27T01:05:26.826Z,7.40
2018-09-27T01:07:56.111Z,7.40
2018-09-27T01:10:25.484Z,7.30
2018-09-27T01:15:23.814Z,7.30
2018-09-27T01:17:53.094Z,7.20
2018-09-27T01:22:51.484Z,7.10
2018-09-27T01:27:49.686Z,7.20
2018-09-27T01:30:19.014Z,7.10
2018-09-27T01:40:14.914Z,7.10
2018-09-27T01:45:13.362Z,7.00
2018-09-27T01:52:41.111Z,7.10
2018-09-27T02:02:37.209Z,7.00
2018-09-27T02:17:30.749Z,6.90
2018-09-27T02:20:00.054Z,6.90
2018-09-27T02:22:29.362Z,7.00
2018-09-27T02:24:58.628Z,7.10
2018-09-27T02:29:56.774Z,7.10
2018-09-27T02:32:26.094Z,7.40
2018-09-27T02:42:21.981Z,7.40
2018-09-27T02:47:20.115Z,7.70
2018-09-27T02:52:18.277Z,7.60
2018-09-27T02:57:16.805Z,7.50
2018-09-27T03:02:15.170Z,7.80
2018-09-27T03:04:44.518Z,8.00
2018-09-27T03:09:42.678Z,8.20
2018-09-27T03:12:12.014Z,7.90
2018-09-27T03:17:10.206Z,7.80
2018-09-27T03:19:39.537Z,7.50
2018-09-27T03:22:08.844Z,7.40
2018-09-27T03:24:38.195Z,7.50
2018-09-27T03:27:07.475Z,7.40
2018-09-27T03:29:36.820Z,7.50
2018-09-27T03:37:03.746Z,7.80
2018-09-27T03:44:30.746Z,7.90
2018-09-27T03:47:00.120Z,8.00
2018-09-27T03:49:29.448Z,7.90
2018-09-27T03:54:27.590Z,7.90
2018-09-27T03:59:25.714Z,7.90
2018-09-27T04:06:52.998Z,8.00
2018-09-27T04:09:22.515Z,7.80
2018-09-27T04:11:51.822Z,7.70
2018-09-27T04:14:21.097Z,7.60
2018-09-27T04:26:45.830Z,7.60
2018-09-27T04:31:43.940Z,7.60
2018-09-27T04:34:13.238Z,7.50
2018-09-27T04:36:42.553Z,7.40
2018-09-27T04:41:42.249Z,7.50
2018-09-27T04:44:11.534Z,7.60
2018-09-27T04:46:40.912Z,7.70
2018-09-27T04:49:10.278Z,7.80
2018-09-27T04:51:39.625Z,7.60
2018-09-27T04:54:08.944Z,7.70
2018-09-27T05:06:33.606Z,7.80
2018-09-27T05:09:03.045Z,7.80
2018-09-27T05:11:32.360Z,7.90
2018-09-27T05:14:02.038Z,7.90
2018-09-27T05:16:31.391Z,8.00
2018-09-27T05:19:00.791Z,8.10
2018-09-27T05:31:25.648Z,8.10
2018-09-27T05:51:17.022Z,8.00
2018-09-27T05:53:47.334Z,8.00
2018-09-27T05:58:45.560Z,8.00
2018-09-27T06:13:39.113Z,8.70
2018-09-27T06:21:07.029Z,9.90
2018-09-27T06:26:06.229Z,10.50
2018-09-27T06:28:35.522Z,10.80
2018-09-27T06:31:04.854Z,11.70
2018-09-27T06:38:31.966Z,12.40
2018-09-27T06:46:05.258Z,13.30
2018-09-27T06:48:34.643Z,13.70
2018-09-27T06:56:01.783Z,14.50
2018-09-27T07:05:57.499Z,16.10
2018-09-27T07:10:55.723Z,16.90
2018-09-27T07:15:53.909Z,16.70
2018-09-27T07:30:47.958Z,18.90
2018-09-27T07:33:18.439Z,19.40
2018-09-27T07:35:47.787Z,20.60
2018-09-27T07:38:18.442Z,21.30
2018-09-27T07:40:47.818Z,22.00
2018-09-27T07:45:46.306Z,22.90
2018-09-27T07:48:16.499Z,23.20
2018-09-27T07:50:46.043Z,23.20
2018-09-27T07:55:44.219Z,24.10
2018-09-27T08:08:11.237Z,24.50
2018-09-27T08:10:40.534Z,23.80
2018-09-27T08:15:38.740Z,24.10
2018-09-27T08:18:08.035Z,25.00
2018-09-27T08:20:37.468Z,25.80
2018-09-27T08:25:35.566Z,24.70
2018-09-27T08:28:04.898Z,24.60
2018-09-27T08:38:00.770Z,26.10
2018-09-27T08:42:59.001Z,25.70
2018-09-27T08:48:00.988Z,26.10
2018-09-27T08:55:28.184Z,26.10
2018-09-27T08:57:57.448Z,26.40
2018-09-27T09:05:25.310Z,26.70
2018-09-27T09:17:50.070Z,28.40
2018-09-27T09:20:19.458Z,28.70
2018-09-27T09:22:48.828Z,28.80
2018-09-27T09:27:46.971Z,28.10
2018-09-27T09:30:16.424Z,28.20
2018-09-27T09:35:14.574Z,30.30
2018-09-27T09:40:12.777Z,29.50
2018-09-27T09:47:42.455Z,31.00
2018-09-27T10:06:13.769Z,29.80
2018-09-27T10:19:27.396Z,30.50
2018-09-27T10:29:23.378Z,29.90
2018-09-27T10:39:19.564Z,30.90
2018-09-27T10:56:43.730Z,29.80
2018-09-27T10:59:16.349Z,30.70
2018-09-27T11:06:48.373Z,29.00
2018-09-27T11:09:17.776Z,29.40
2018-09-27T19:30:02.612Z,16.00
2018-09-27T19:57:23.005Z,15.60
2018-09-27T21:46:51.569Z,13.30
